Point Vicente — WDB9763 — position and weather

sailwx.info

Track history (hours):
 
Tides and Currents Weather Stations Pressure Air Temp Water Temp Dewpoint Dewpoint Depression Visibility Wind Speed Wind Dir Waves Ship Positions

Point Vicente

Owner: Foss Maritime Company, Seattle, WA. More information available from US FCC via Universal Licensing System and Coast Guard Vessel Documentation Center.

Last reported at 2017-Feb-21 11:30 UTC. Time now 2017-Feb-21 11:59 UTC.
Position N 37°54' W 122°22'.

Length 32 m; draft 4.3 m.

Type: Tug. MMSI: 366982330.

Date/timePositionNaut miles runAvg speedWind from/ knotsBaromVisibWave heightAir tempDewpointWater temp
2017-Feb-21 11:30N 37°54' W 122°22'0 0.0
2017-Feb-21 10:33N 37°54' W 122°22'0 0.0
2017-Feb-21 09:33N 37°54' W 122°22'0 0.0
2017-Feb-21 08:33N 37°54' W 122°22'0 0.0
2017-Feb-21 07:33N 37°54' W 122°22'0 0.0
2017-Feb-21 06:33N 37°54' W 122°22'0 0.0
2017-Feb-21 05:33N 37°54' W 122°22'0 0.0
2017-Feb-21 04:34N 37°54' W 122°22'0 0.0
2017-Feb-21 03:33N 37°54' W 122°22'0 0.0
2017-Feb-21 02:33N 37°54' W 122°22'0 0.0
2017-Feb-21 01:33N 37°54' W 122°22'0 0.0
2017-Feb-21 00:33N 37°54' W 122°22'0 0.0
2017-Feb-20 23:33N 37°54' W 122°22'0 0.0
2017-Feb-20 22:33N 37°54' W 122°22'0 0.0
2017-Feb-20 21:33N 37°54' W 122°22'0 0.0
2017-Feb-20 20:33N 37°54' W 122°22'0 0.0
2017-Feb-20 19:33N 37°54' W 122°22'0 0.0
2017-Feb-20 18:33N 37°54' W 122°22'0 0.0
2017-Feb-20 17:33N 37°54' W 122°22'0 0.0
2017-Feb-20 16:33N 37°54' W 122°22'0 0.0
2017-Feb-20 15:33N 37°54' W 122°22'0 0.0
2017-Feb-20 14:33N 37°54' W 122°22'0 0.0
2017-Feb-20 13:33N 37°54' W 122°22'0 0.0
2017-Feb-20 12:33N 37°54' W 122°22'0 0.0
2017-Feb-20 11:33N 37°54' W 122°22'0 0.0
2017-Feb-20 10:33N 37°54' W 122°22'0 0.0
2017-Feb-20 09:33N 37°54' W 122°22'0 0.0
2017-Feb-20 08:33N 37°54' W 122°22'0 0.0
2017-Feb-20 07:33N 37°54' W 122°22'0 0.0
2017-Feb-20 06:33N 37°54' W 122°22'0 0.0
2017-Feb-20 05:33N 37°54' W 122°22'0 0.0
2017-Feb-20 04:33N 37°54' W 122°22'0 0.0
2017-Feb-20 03:33N 37°54' W 122°22'0 0.0
2017-Feb-20 02:33N 37°54' W 122°22'0 0.0
2017-Feb-20 01:33N 37°54' W 122°22'0 0.0
2017-Feb-20 00:33N 37°54' W 122°22'0 0.0
2017-Feb-19 23:33N 37°54' W 122°22'0 0.0
2017-Feb-19 22:33N 37°54' W 122°22'0 0.0
2017-Feb-19 21:33N 37°54' W 122°22'0 0.0
2017-Feb-19 20:33N 37°54' W 122°22'0 0.0
2017-Feb-19 19:33N 37°54' W 122°22'0 0.0
2017-Feb-19 18:33N 37°54' W 122°22'0 0.0
2017-Feb-19 17:33N 37°54' W 122°22'0 0.0
2017-Feb-19 16:33N 37°54' W 122°22'0 0.0
2017-Feb-19 15:33N 37°54' W 122°22'0 0.0
2017-Feb-19 14:33N 37°54' W 122°22'0 0.0
2017-Feb-19 13:33N 37°54' W 122°22'0 0.0
2017-Feb-19 12:33N 37°54' W 122°22'0 0.0
2017-Feb-19 11:33N 37°54' W 122°22'0 0.0
2017-Feb-19 10:33N 37°54' W 122°22'0 0.0
2017-Feb-19 09:33N 37°54' W 122°22'0 0.0
2017-Feb-19 08:33N 37°54' W 122°22'0 0.0
2017-Feb-19 07:33N 37°54' W 122°22'0 0.0
2017-Feb-19 06:33N 37°54' W 122°22'0 0.0
2017-Feb-19 05:33N 37°54' W 122°22'0 0.0
2017-Feb-19 04:33N 37°54' W 122°22'0 0.0
2017-Feb-19 03:33N 37°54' W 122°22'0 0.0
2017-Feb-19 02:33N 37°54' W 122°22'2 2.4
2017-Feb-19 01:33N 37°56' W 122°25'2 2.1
2017-Feb-19 00:33N 37°55' W 122°22'1 0.9
2017-Feb-18 23:33N 37°54' W 122°22'3 3.5
2017-Feb-18 22:33N 37°51' W 122°23'3 3.2
2017-Feb-18 21:33N 37°48' W 122°20'0 0.0
2017-Feb-18 20:33N 37°49' W 122°20'0 0.0
2017-Feb-18 19:33N 37°49' W 122°20'0 0.0
2017-Feb-18 18:33N 37°49' W 122°20'0 0.0
2017-Feb-18 17:33N 37°49' W 122°20'0 0.0
2017-Feb-18 16:33N 37°49' W 122°20'0 0.0
2017-Feb-18 15:33N 37°49' W 122°20'1 1.0
2017-Feb-18 14:33N 37°49' W 122°21'4 3.9
2017-Feb-18 13:33N 37°52' W 122°24'2 2.3
2017-Feb-18 12:31N 37°54' W 122°22'0 0.0
2017-Feb-18 11:31N 37°54' W 122°22'0 0.0
2017-Feb-18 10:31N 37°54' W 122°22'0 0.0
2017-Feb-18 09:31N 37°54' W 122°22'0 0.0
2017-Feb-18 08:31N 37°54' W 122°22'0 0.0
2017-Feb-18 07:31N 37°54' W 122°22'0 0.0
2017-Feb-18 06:31N 37°54' W 122°22'0 0.0
2017-Feb-18 05:31N 37°54' W 122°22'0 0.0
2017-Feb-18 04:31N 37°54' W 122°22'0 0.0
2017-Feb-18 03:31N 37°54' W 122°22'0 0.0
2017-Feb-18 02:31N 37°54' W 122°22'0 0.0
2017-Feb-18 01:31N 37°54' W 122°22'0 0.0
2017-Feb-18 00:31N 37°54' W 122°22'0 0.0
2017-Feb-17 23:31N 37°54' W 122°22'0 0.0
2017-Feb-17 22:31N 37°54' W 122°22'0 0.0
2017-Feb-17 21:31N 37°54' W 122°22'0 0.0
2017-Feb-17 20:31N 37°54' W 122°22'0 0.0
2017-Feb-17 19:31N 37°54' W 122°22'0 0.0
2017-Feb-17 18:31N 37°54' W 122°22'0 0.0
2017-Feb-17 17:31N 37°54' W 122°22'0 0.0
2017-Feb-17 16:31N 37°54' W 122°22'0 0.0
2017-Feb-17 15:31N 37°54' W 122°22'0 0.0
2017-Feb-17 14:31N 37°54' W 122°22'0 0.0
2017-Feb-17 13:31N 37°54' W 122°22'0 0.0
2017-Feb-17 12:31N 37°54' W 122°22'0 0.0
2017-Feb-17 11:31N 37°54' W 122°22'0 0.0
2017-Feb-17 10:31N 37°54' W 122°22'0 0.0
2017-Feb-17 09:31N 37°54' W 122°22'0 0.0
2017-Feb-17 08:31N 37°54' W 122°22'0 0.0
2017-Feb-17 07:31N 37°54' W 122°22'0 0.0
2017-Feb-17 06:31N 37°54' W 122°22'0 0.0
2017-Feb-17 05:31N 37°54' W 122°22'0 0.0
2017-Feb-17 04:31N 37°54' W 122°22'0 0.0
2017-Feb-17 03:31N 37°54' W 122°22'0 0.0
2017-Feb-17 02:31N 37°54' W 122°22'0 0.0
2017-Feb-17 01:31N 37°54' W 122°22'0 0.0
2017-Feb-17 00:31N 37°54' W 122°22'0 0.0
2017-Feb-16 23:31N 37°54' W 122°22'0 0.0
2017-Feb-16 22:31N 37°54' W 122°22'0 0.0
2017-Feb-16 21:31N 37°54' W 122°22'0 0.0
2017-Feb-16 20:31N 37°54' W 122°22'0 0.0
2017-Feb-16 19:31N 37°54' W 122°22'0 0.0
2017-Feb-16 18:31N 37°54' W 122°22'0 0.0
2017-Feb-16 17:31N 37°54' W 122°22'2 1.8
2017-Feb-16 16:33N 37°55' W 122°24'3 2.5
2017-Feb-16 15:33N 37°57' W 122°26'9 9.4
2017-Feb-16 14:33N 37°49' W 122°20'1 1.4
2017-Feb-16 13:33N 37°49' W 122°19'4 4.2
2017-Feb-16 12:33N 37°51' W 122°23'6 6.1
2017-Feb-16 11:33N 37°57' W 122°27'2 2.4
2017-Feb-16 10:33N 37°59' W 122°26'4 4.5
2017-Feb-16 09:34N 38°02' W 122°22'9 8.5
2017-Feb-16 08:32N 38°03' W 122°11'10 9.1
2017-Feb-16 07:27N 38°03' W 121°58'6 5.2
2017-Feb-16 06:22N 38°04' W 121°51'0 0.2
2017-Feb-16 05:25N 38°04' W 121°52'9 4.0
2017-Feb-16 03:06N 38°04' W 122°03'3 4.3
2017-Feb-16 02:20N 38°02' W 122°07'1 1.4
2017-Feb-16 01:29N 38°03' W 122°06'1 0.4
2017-Feb-15 22:06N 38°03' W 122°04'3 3.1
2017-Feb-15 21:05N 38°02' W 122°08'0 0.0
2017-Feb-15 20:33N 38°02' W 122°08'6 5.7
2017-Feb-15 19:33N 38°04' W 122°15'9 9.0
2017-Feb-15 18:33N 37°59' W 122°25'0 0.2
2017-Feb-15 17:33N 37°59' W 122°25'10 9.8
2017-Feb-15 16:33N 38°04' W 122°14'5 4.6
2017-Feb-15 15:33N 38°02' W 122°08'0 0.0
2017-Feb-15 14:15N 38°02' W 122°08'0 0.0
2017-Feb-15 13:21N 38°02' W 122°08'0 0.0
2017-Feb-15 10:09N 38°02' W 122°08'0 0.0
2017-Feb-15 08:15N 38°02' W 122°08'0 0.0
2017-Feb-15 02:16N 38°02' W 122°08'6 6.5
2017-Feb-15 01:24N 38°04' W 122°01'3 0.7
2017-Feb-14 20:33N 38°03' W 122°06'2 1.7
2017-Feb-14 19:23N 38°02' W 122°08'6 7.1
2017-Feb-14 18:33N 38°04' W 122°01'7 7.2
2017-Feb-14 17:34N 38°04' W 121°52'0 0.2
2017-Feb-14 16:31N 38°04' W 121°51'0 0.0
2017-Feb-14 14:33N 38°04' W 121°51'4 3.8
2017-Feb-14 13:31N 38°03' W 121°56'6 5.9
2017-Feb-14 12:30N 38°04' W 122°04'3 3.5
2017-Feb-14 11:31N 38°03' W 122°08'1 0.5
2017-Feb-14 10:34N 38°02' W 122°08'0 0.2
2017-Feb-14 09:33N 38°02' W 122°08'6 5.7
2017-Feb-14 08:34N 38°04' W 122°01'8 6.8
2017-Feb-14 07:25N 38°04' W 121°51'13 6.4
2017-Feb-14 05:25N 38°02' W 122°08'6 7.4
2017-Feb-14 04:33N 38°04' W 122°16'8 7.9
2017-Feb-14 03:34N 38°00' W 122°25'6 6.1
2017-Feb-14 02:34N 37°54' W 122°22'0 0.0
2017-Feb-14 01:33N 37°54' W 122°22'0 0.0
2017-Feb-14 00:33N 37°54' W 122°22'0 0.0
2017-Feb-13 23:33N 37°54' W 122°22'0 0.0
2017-Feb-13 22:33N 37°54' W 122°22'0 0.0
2017-Feb-13 21:33N 37°54' W 122°22'0 0.0
2017-Feb-13 20:33N 37°54' W 122°22'0 0.0
2017-Feb-13 19:33N 37°54' W 122°22'0 0.0
2017-Feb-13 18:33N 37°54' W 122°22'0 0.0
2017-Feb-13 17:33N 37°54' W 122°22'0 0.0
2017-Feb-13 16:33N 37°54' W 122°22'0 0.0
2017-Feb-13 15:33N 37°54' W 122°22'0 0.0
2017-Feb-13 14:33N 37°54' W 122°22'0 0.0
2017-Feb-13 13:33N 37°54' W 122°22'0 0.0
2017-Feb-13 12:33N 37°54' W 122°22'0 0.0
2017-Feb-13 11:33N 37°54' W 122°22'0 0.0
2017-Feb-13 10:33N 37°54' W 122°22'0 0.0
2017-Feb-13 09:33N 37°54' W 122°22'0 0.0
2017-Feb-13 08:33N 37°54' W 122°22'0 0.0
2017-Feb-13 07:30N 37°54' W 122°22'0 0.0
2017-Feb-13 06:33N 37°54' W 122°22'0 0.0
2017-Feb-13 05:33N 37°54' W 122°22'0 0.0
2017-Feb-13 04:33N 37°54' W 122°22'0 0.0
2017-Feb-13 03:33N 37°54' W 122°22'0 0.0
2017-Feb-13 02:33N 37°54' W 122°22'0 0.0
2017-Feb-13 01:33N 37°54' W 122°22'0 0.0
2017-Feb-13 00:33N 37°54' W 122°22'0 0.0
2017-Feb-12 23:33N 37°54' W 122°22'0 0.0
2017-Feb-12 22:33N 37°54' W 122°22'0 0.0
2017-Feb-12 21:33N 37°54' W 122°22'0 0.0
2017-Feb-12 20:33N 37°54' W 122°22'0 0.0
2017-Feb-12 19:33N 37°54' W 122°22'0 0.0
2017-Feb-12 18:33N 37°54' W 122°22'0 0.0
2017-Feb-12 17:33N 37°54' W 122°22'0 0.0
2017-Feb-12 16:33N 37°54' W 122°22'0 0.0
2017-Feb-12 15:33N 37°54' W 122°22'0 0.0
2017-Feb-12 14:33N 37°54' W 122°22'0 0.0
2017-Feb-12 13:33N 37°54' W 122°22'0 0.0
2017-Feb-12 12:33N 37°54' W 122°22'0 0.0
2017-Feb-12 11:33N 37°54' W 122°22'0 0.0
2017-Feb-12 10:30N 37°54' W 122°22'0 0.0
2017-Feb-12 09:33N 37°54' W 122°22'0 0.0
2017-Feb-12 08:33N 37°54' W 122°22'0 0.0
2017-Feb-12 07:30N 37°54' W 122°22'0 0.0
2017-Feb-12 06:33N 37°54' W 122°22'0 0.0
2017-Feb-12 05:33N 37°54' W 122°22'0 0.0
2017-Feb-12 04:33N 37°54' W 122°22'0 0.0
2017-Feb-12 03:33N 37°54' W 122°22'0 0.0
2017-Feb-12 02:33N 37°54' W 122°22'0 0.0
2017-Feb-12 01:33N 37°54' W 122°22'0 0.0
2017-Feb-12 00:33N 37°54' W 122°22'0 0.0
2017-Feb-11 23:33N 37°54' W 122°22'0 0.0
2017-Feb-11 22:33N 37°54' W 122°22'0 0.0
2017-Feb-11 21:33N 37°54' W 122°22'0 0.0
2017-Feb-11 20:33N 37°54' W 122°22'0 0.0
2017-Feb-11 19:33N 37°54' W 122°22'0 0.0
2017-Feb-11 18:33N 37°54' W 122°22'0 0.0
2017-Feb-11 17:33N 37°54' W 122°22'0 0.0
2017-Feb-11 16:33N 37°54' W 122°22'0 0.0
2017-Feb-11 15:33N 37°54' W 122°22'0 0.0
2017-Feb-11 14:33N 37°54' W 122°22'0 0.0
2017-Feb-11 13:33N 37°54' W 122°22'0 0.0
2017-Feb-11 12:33N 37°54' W 122°22'0 0.1
2017-Feb-11 11:33N 37°54' W 122°22'  
Track history (hours):
 
Tides and Currents Weather Stations Pressure Air Temp Water Temp Dewpoint Dewpoint Depression Visibility Wind Speed Wind Dir Waves Ship Positions

Point Vicente

Owner: Foss Maritime Company, Seattle, WA. More information available from US FCC via Universal Licensing System and Coast Guard Vessel Documentation Center.

Last reported at 2017-Feb-21 11:30 UTC. Time now 2017-Feb-21 11:59 UTC.
Position N 37°54' W 122°22'.

Length 32 m; draft 4.3 m.

Type: Tug. MMSI: 366982330.

Date/timePositionNaut miles runAvg speedWind from/ knotsBaromVisibWave heightAir tempDewpointWater temp
2017-Feb-21 11:30N 37°54' W 122°22'0 0.0
2017-Feb-21 10:33N 37°54' W 122°22'0 0.0
2017-Feb-21 09:33N 37°54' W 122°22'0 0.0
2017-Feb-21 08:33N 37°54' W 122°22'0 0.0
2017-Feb-21 07:33N 37°54' W 122°22'0 0.0
2017-Feb-21 06:33N 37°54' W 122°22'0 0.0
2017-Feb-21 05:33N 37°54' W 122°22'0 0.0
2017-Feb-21 04:34N 37°54' W 122°22'0 0.0
2017-Feb-21 03:33N 37°54' W 122°22'0 0.0
2017-Feb-21 02:33N 37°54' W 122°22'0 0.0
2017-Feb-21 01:33N 37°54' W 122°22'0 0.0
2017-Feb-21 00:33N 37°54' W 122°22'0 0.0
2017-Feb-20 23:33N 37°54' W 122°22'0 0.0
2017-Feb-20 22:33N 37°54' W 122°22'0 0.0
2017-Feb-20 21:33N 37°54' W 122°22'0 0.0
2017-Feb-20 20:33N 37°54' W 122°22'0 0.0
2017-Feb-20 19:33N 37°54' W 122°22'0 0.0
2017-Feb-20 18:33N 37°54' W 122°22'0 0.0
2017-Feb-20 17:33N 37°54' W 122°22'0 0.0
2017-Feb-20 16:33N 37°54' W 122°22'0 0.0
2017-Feb-20 15:33N 37°54' W 122°22'0 0.0
2017-Feb-20 14:33N 37°54' W 122°22'0 0.0
2017-Feb-20 13:33N 37°54' W 122°22'0 0.0
2017-Feb-20 12:33N 37°54' W 122°22'0 0.0
2017-Feb-20 11:33N 37°54' W 122°22'0 0.0
2017-Feb-20 10:33N 37°54' W 122°22'0 0.0
2017-Feb-20 09:33N 37°54' W 122°22'0 0.0
2017-Feb-20 08:33N 37°54' W 122°22'0 0.0
2017-Feb-20 07:33N 37°54' W 122°22'0 0.0
2017-Feb-20 06:33N 37°54' W 122°22'0 0.0
2017-Feb-20 05:33N 37°54' W 122°22'0 0.0
2017-Feb-20 04:33N 37°54' W 122°22'0 0.0
2017-Feb-20 03:33N 37°54' W 122°22'0 0.0
2017-Feb-20 02:33N 37°54' W 122°22'0 0.0
2017-Feb-20 01:33N 37°54' W 122°22'0 0.0
2017-Feb-20 00:33N 37°54' W 122°22'0 0.0
2017-Feb-19 23:33N 37°54' W 122°22'0 0.0
2017-Feb-19 22:33N 37°54' W 122°22'0 0.0
2017-Feb-19 21:33N 37°54' W 122°22'0 0.0
2017-Feb-19 20:33N 37°54' W 122°22'0 0.0
2017-Feb-19 19:33N 37°54' W 122°22'0 0.0
2017-Feb-19 18:33N 37°54' W 122°22'0 0.0
2017-Feb-19 17:33N 37°54' W 122°22'0 0.0
2017-Feb-19 16:33N 37°54' W 122°22'0 0.0
2017-Feb-19 15:33N 37°54' W 122°22'0 0.0
2017-Feb-19 14:33N 37°54' W 122°22'0 0.0
2017-Feb-19 13:33N 37°54' W 122°22'0 0.0
2017-Feb-19 12:33N 37°54' W 122°22'0 0.0
2017-Feb-19 11:33N 37°54' W 122°22'0 0.0
2017-Feb-19 10:33N 37°54' W 122°22'0 0.0
2017-Feb-19 09:33N 37°54' W 122°22'0 0.0
2017-Feb-19 08:33N 37°54' W 122°22'0 0.0
2017-Feb-19 07:33N 37°54' W 122°22'0 0.0
2017-Feb-19 06:33N 37°54' W 122°22'0 0.0
2017-Feb-19 05:33N 37°54' W 122°22'0 0.0
2017-Feb-19 04:33N 37°54' W 122°22'0 0.0
2017-Feb-19 03:33N 37°54' W 122°22'0 0.0
2017-Feb-19 02:33N 37°54' W 122°22'2 2.4
2017-Feb-19 01:33N 37°56' W 122°25'2 2.1
2017-Feb-19 00:33N 37°55' W 122°22'1 0.9
2017-Feb-18 23:33N 37°54' W 122°22'3 3.5
2017-Feb-18 22:33N 37°51' W 122°23'3 3.2
2017-Feb-18 21:33N 37°48' W 122°20'0 0.0
2017-Feb-18 20:33N 37°49' W 122°20'0 0.0
2017-Feb-18 19:33N 37°49' W 122°20'0 0.0
2017-Feb-18 18:33N 37°49' W 122°20'0 0.0
2017-Feb-18 17:33N 37°49' W 122°20'0 0.0
2017-Feb-18 16:33N 37°49' W 122°20'0 0.0
2017-Feb-18 15:33N 37°49' W 122°20'1 1.0
2017-Feb-18 14:33N 37°49' W 122°21'4 3.9
2017-Feb-18 13:33N 37°52' W 122°24'2 2.3
2017-Feb-18 12:31N 37°54' W 122°22'0 0.0
2017-Feb-18 11:31N 37°54' W 122°22'0 0.0
2017-Feb-18 10:31N 37°54' W 122°22'0 0.0
2017-Feb-18 09:31N 37°54' W 122°22'0 0.0
2017-Feb-18 08:31N 37°54' W 122°22'0 0.0
2017-Feb-18 07:31N 37°54' W 122°22'0 0.0
2017-Feb-18 06:31N 37°54' W 122°22'0 0.0
2017-Feb-18 05:31N 37°54' W 122°22'0 0.0
2017-Feb-18 04:31N 37°54' W 122°22'0 0.0
2017-Feb-18 03:31N 37°54' W 122°22'0 0.0
2017-Feb-18 02:31N 37°54' W 122°22'0 0.0
2017-Feb-18 01:31N 37°54' W 122°22'0 0.0
2017-Feb-18 00:31N 37°54' W 122°22'0 0.0
2017-Feb-17 23:31N 37°54' W 122°22'0 0.0
2017-Feb-17 22:31N 37°54' W 122°22'0 0.0
2017-Feb-17 21:31N 37°54' W 122°22'0 0.0
2017-Feb-17 20:31N 37°54' W 122°22'0 0.0
2017-Feb-17 19:31N 37°54' W 122°22'0 0.0
2017-Feb-17 18:31N 37°54' W 122°22'0 0.0
2017-Feb-17 17:31N 37°54' W 122°22'0 0.0
2017-Feb-17 16:31N 37°54' W 122°22'0 0.0
2017-Feb-17 15:31N 37°54' W 122°22'0 0.0
2017-Feb-17 14:31N 37°54' W 122°22'0 0.0
2017-Feb-17 13:31N 37°54' W 122°22'0 0.0
2017-Feb-17 12:31N 37°54' W 122°22'0 0.0
2017-Feb-17 11:31N 37°54' W 122°22'0 0.0
2017-Feb-17 10:31N 37°54' W 122°22'0 0.0
2017-Feb-17 09:31N 37°54' W 122°22'0 0.0
2017-Feb-17 08:31N 37°54' W 122°22'0 0.0
2017-Feb-17 07:31N 37°54' W 122°22'0 0.0
2017-Feb-17 06:31N 37°54' W 122°22'0 0.0
2017-Feb-17 05:31N 37°54' W 122°22'0 0.0
2017-Feb-17 04:31N 37°54' W 122°22'0 0.0
2017-Feb-17 03:31N 37°54' W 122°22'0 0.0
2017-Feb-17 02:31N 37°54' W 122°22'0 0.0
2017-Feb-17 01:31N 37°54' W 122°22'0 0.0
2017-Feb-17 00:31N 37°54' W 122°22'0 0.0
2017-Feb-16 23:31N 37°54' W 122°22'0 0.0
2017-Feb-16 22:31N 37°54' W 122°22'0 0.0
2017-Feb-16 21:31N 37°54' W 122°22'0 0.0
2017-Feb-16 20:31N 37°54' W 122°22'0 0.0
2017-Feb-16 19:31N 37°54' W 122°22'0 0.0
2017-Feb-16 18:31N 37°54' W 122°22'0 0.0
2017-Feb-16 17:31N 37°54' W 122°22'2 1.8
2017-Feb-16 16:33N 37°55' W 122°24'3 2.5
2017-Feb-16 15:33N 37°57' W 122°26'9 9.4
2017-Feb-16 14:33N 37°49' W 122°20'1 1.4
2017-Feb-16 13:33N 37°49' W 122°19'4 4.2
2017-Feb-16 12:33N 37°51' W 122°23'6 6.1
2017-Feb-16 11:33N 37°57' W 122°27'2 2.4
2017-Feb-16 10:33N 37°59' W 122°26'4 4.5
2017-Feb-16 09:34N 38°02' W 122°22'9 8.5
2017-Feb-16 08:32N 38°03' W 122°11'10 9.1
2017-Feb-16 07:27N 38°03' W 121°58'6 5.2
2017-Feb-16 06:22N 38°04' W 121°51'0 0.2
2017-Feb-16 05:25N 38°04' W 121°52'9 4.0
2017-Feb-16 03:06N 38°04' W 122°03'3 4.3
2017-Feb-16 02:20N 38°02' W 122°07'1 1.4
2017-Feb-16 01:29N 38°03' W 122°06'1 0.4
2017-Feb-15 22:06N 38°03' W 122°04'3 3.1
2017-Feb-15 21:05N 38°02' W 122°08'0 0.0
2017-Feb-15 20:33N 38°02' W 122°08'6 5.7
2017-Feb-15 19:33N 38°04' W 122°15'9 9.0
2017-Feb-15 18:33N 37°59' W 122°25'0 0.2
2017-Feb-15 17:33N 37°59' W 122°25'10 9.8
2017-Feb-15 16:33N 38°04' W 122°14'5 4.6
2017-Feb-15 15:33N 38°02' W 122°08'0 0.0
2017-Feb-15 14:15N 38°02' W 122°08'0 0.0
2017-Feb-15 13:21N 38°02' W 122°08'0 0.0
2017-Feb-15 10:09N 38°02' W 122°08'0 0.0
2017-Feb-15 08:15N 38°02' W 122°08'0 0.0
2017-Feb-15 02:16N 38°02' W 122°08'6 6.5
2017-Feb-15 01:24N 38°04' W 122°01'3 0.7
2017-Feb-14 20:33N 38°03' W 122°06'2 1.7
2017-Feb-14 19:23N 38°02' W 122°08'6 7.1
2017-Feb-14 18:33N 38°04' W 122°01'7 7.2
2017-Feb-14 17:34N 38°04' W 121°52'0 0.2
2017-Feb-14 16:31N 38°04' W 121°51'0 0.0
2017-Feb-14 14:33N 38°04' W 121°51'4 3.8
2017-Feb-14 13:31N 38°03' W 121°56'6 5.9
2017-Feb-14 12:30N 38°04' W 122°04'3 3.5
2017-Feb-14 11:31N 38°03' W 122°08'1 0.5
2017-Feb-14 10:34N 38°02' W 122°08'0 0.2
2017-Feb-14 09:33N 38°02' W 122°08'6 5.7
2017-Feb-14 08:34N 38°04' W 122°01'8 6.8
2017-Feb-14 07:25N 38°04' W 121°51'13 6.4
2017-Feb-14 05:25N 38°02' W 122°08'6 7.4
2017-Feb-14 04:33N 38°04' W 122°16'8 7.9
2017-Feb-14 03:34N 38°00' W 122°25'6 6.1
2017-Feb-14 02:34N 37°54' W 122°22'0 0.0
2017-Feb-14 01:33N 37°54' W 122°22'0 0.0
2017-Feb-14 00:33N 37°54' W 122°22'0 0.0
2017-Feb-13 23:33N 37°54' W 122°22'0 0.0
2017-Feb-13 22:33N 37°54' W 122°22'0 0.0
2017-Feb-13 21:33N 37°54' W 122°22'0 0.0
2017-Feb-13 20:33N 37°54' W 122°22'0 0.0
2017-Feb-13 19:33N 37°54' W 122°22'0 0.0
2017-Feb-13 18:33N 37°54' W 122°22'0 0.0
2017-Feb-13 17:33N 37°54' W 122°22'0 0.0
2017-Feb-13 16:33N 37°54' W 122°22'0 0.0
2017-Feb-13 15:33N 37°54' W 122°22'0 0.0
2017-Feb-13 14:33N 37°54' W 122°22'0 0.0
2017-Feb-13 13:33N 37°54' W 122°22'0 0.0
2017-Feb-13 12:33N 37°54' W 122°22'0 0.0
2017-Feb-13 11:33N 37°54' W 122°22'0 0.0
2017-Feb-13 10:33N 37°54' W 122°22'0 0.0
2017-Feb-13 09:33N 37°54' W 122°22'0 0.0
2017-Feb-13 08:33N 37°54' W 122°22'0 0.0
2017-Feb-13 07:30N 37°54' W 122°22'0 0.0
2017-Feb-13 06:33N 37°54' W 122°22'0 0.0
2017-Feb-13 05:33N 37°54' W 122°22'0 0.0
2017-Feb-13 04:33N 37°54' W 122°22'0 0.0
2017-Feb-13 03:33N 37°54' W 122°22'0 0.0
2017-Feb-13 02:33N 37°54' W 122°22'0 0.0
2017-Feb-13 01:33N 37°54' W 122°22'0 0.0
2017-Feb-13 00:33N 37°54' W 122°22'0 0.0
2017-Feb-12 23:33N 37°54' W 122°22'0 0.0
2017-Feb-12 22:33N 37°54' W 122°22'0 0.0
2017-Feb-12 21:33N 37°54' W 122°22'0 0.0
2017-Feb-12 20:33N 37°54' W 122°22'0 0.0
2017-Feb-12 19:33N 37°54' W 122°22'0 0.0
2017-Feb-12 18:33N 37°54' W 122°22'0 0.0
2017-Feb-12 17:33N 37°54' W 122°22'0 0.0
2017-Feb-12 16:33N 37°54' W 122°22'0 0.0
2017-Feb-12 15:33N 37°54' W 122°22'0 0.0
2017-Feb-12 14:33N 37°54' W 122°22'0 0.0
2017-Feb-12 13:33N 37°54' W 122°22'0 0.0
2017-Feb-12 12:33N 37°54' W 122°22'0 0.0
2017-Feb-12 11:33N 37°54' W 122°22'0 0.0
2017-Feb-12 10:30N 37°54' W 122°22'0 0.0
2017-Feb-12 09:33N 37°54' W 122°22'0 0.0
2017-Feb-12 08:33N 37°54' W 122°22'0 0.0
2017-Feb-12 07:30N 37°54' W 122°22'0 0.0
2017-Feb-12 06:33N 37°54' W 122°22'0 0.0
2017-Feb-12 05:33N 37°54' W 122°22'0 0.0
2017-Feb-12 04:33N 37°54' W 122°22'0 0.0
2017-Feb-12 03:33N 37°54' W 122°22'0 0.0
2017-Feb-12 02:33N 37°54' W 122°22'0 0.0
2017-Feb-12 01:33N 37°54' W 122°22'0 0.0
2017-Feb-12 00:33N 37°54' W 122°22'0 0.0
2017-Feb-11 23:33N 37°54' W 122°22'0 0.0
2017-Feb-11 22:33N 37°54' W 122°22'0 0.0
2017-Feb-11 21:33N 37°54' W 122°22'0 0.0
2017-Feb-11 20:33N 37°54' W 122°22'0 0.0
2017-Feb-11 19:33N 37°54' W 122°22'0 0.0
2017-Feb-11 18:33N 37°54' W 122°22'0 0.0
2017-Feb-11 17:33N 37°54' W 122°22'0 0.0
2017-Feb-11 16:33N 37°54' W 122°22'0 0.0
2017-Feb-11 15:33N 37°54' W 122°22'0 0.0
2017-Feb-11 14:33N 37°54' W 122°22'0 0.0
2017-Feb-11 13:33N 37°54' W 122°22'0 0.0
2017-Feb-11 12:33N 37°54' W 122°22'0 0.1
2017-Feb-11 11:33N 37°54' W 122°22'  

Dump ship's entire track history